High Point, NC

7:50 PM EDT on September 16, 2014 (GMT -0400)
Between the Lakes | Change Station
CLOSE
Current Station
Personal Weather Station
Location: High Point, NC
Elevation: 843 ft
Nearby Weather Stations

Elev 843 ft 36.01 °N, 79.97 °W | Updated 14 minutes ago

Overcast
Overcast
69.8 °F
Feels Like 69.8 °F
N
0.0
Wind Variable Wind from WSW

Today
High -- | Low -- °F
--% Chance of Precip.
Yesterday
High -- | Low -- °F
Precip. -- in
7:03 AM 7:25 PM
Last Quarter, 41% visible
Pressure 29.95 in
Visibility 10.0 miles
Clouds Few 1000 ft
Scattered Clouds 2500 ft
Mostly Cloudy 10000 ft
Mostly Cloudy 25000 ft
Dew Point 69 °F
Humidity 98%
Rainfall 0.50 in
Snow Depth Not available.
UV 0 out of 12
Pollen 7.20 out of 12
Ozone Good
PM2.5 Good
Flu Activity Not available.
METAR KGSO 162254Z 04003KT 10SM FEW010 SCT025 BKN100 BKN250 21/19 A2997 RMK AO2 TSE42RAE42 SLP142 TS MOV SE CB DSNT SE-S-SW P0043 T02110194

More Conditions Fewer Conditions

Pressure 29.95 in
Visibility 10.0 miles
Clouds Few 1000 ft
Scattered Clouds 2500 ft
Mostly Cloudy 10000 ft
Mostly Cloudy 25000 ft
Dew Point 69 °F
Humidity 98%
Rainfall 0.50 in
Snow Depth Not available.
UV 0 out of 12
Pollen 7.20 out of 12
Ozone Good
PM2.5 Good
Flu Activity Not available.
METAR KGSO 162254Z 04003KT 10SM FEW010 SCT025 BKN100 BKN250 21/19 A2997 RMK AO2 TSE42RAE42 SLP142 TS MOV SE CB DSNT SE-S-SW P0043 T02110194

More Conditions Fewer Conditions

10-Day Weather Forecast

Almanac

Astronomy

Sep. 16, 2014 Rise Set
Actual Time 7:03 AM EDT 7:25 PM EDT
Civil Twilight 6:37 AM EDT 7:51 PM EDT
Nautical Twilight 6:07 AM EDT 8:21 PM EDT
Astronomical Twilight 5:36 AM EDT 8:52 PM EDT
Moon 12:19 AM EDT 2:40 PM EDT
Length of Visible Light 13h 13m
Length of Day
12h 22m
Tomorrow will be 2m 15s shorter.
Last Quarter, 41% of the Moon is Illuminated
Today
Last Quarter
Sep 24
New
Oct 1
First Quarter
Oct 8
Full
Oct 15
Last Quarter

Today's Extremes

State Highs State Lows

Community

WunderPhotos

Upload Photos

1,753,917 photos uploaded!

Nearby

Air Quality

  Air Quality AQ Index Pollutant
Yesterday Good
PM2.5
Yesterday Good
OZONE
Current Good
PM2.5
Current Good
OZONE
Tuesday Good
OZONE
Tuesday Good
PM2.5
Wednesday Good
OZONE
Wednesday Good
PM2.5
Thursday Good
OZONE
Thursday Good
PM2.5
Friday Good
OZONE
Friday Good
PM2.5

Snow Depth

Station Depth Elevation
No new snow has been reported.

Earthquake Activity

City Distance Mag. Time & Date
No recent earthquake activity has been reported nearby.
Minimum magnitude displayed is 2.5.

Coastal Water Temperatures

Place Temperature
No Stations Reporting

Nearby Weather Stations